createdAt,value
2018-08-18T00:00:18.093Z,27
2018-08-18T00:01:08.381Z,26.9
2018-08-18T00:01:58.193Z,26.9
2018-08-18T00:02:48.581Z,26.9
2018-08-18T00:03:38.376Z,27
2018-08-18T00:04:28.453Z,26.9
2018-08-18T00:05:18.738Z,26.9
2018-08-18T00:06:08.586Z,27
2018-08-18T00:06:58.888Z,26.9
2018-08-18T00:07:48.688Z,26.9
2018-08-18T00:08:38.465Z,26.9
2018-08-18T00:09:28.811Z,27
2018-08-18T00:10:19.228Z,26.9
2018-08-18T00:11:08.654Z,27
2018-08-18T00:11:58.745Z,26.9
2018-08-18T00:12:49.348Z,26.9
2018-08-18T00:13:39.421Z,27
2018-08-18T00:14:28.913Z,26.9
2018-08-18T00:15:19.267Z,26.9
2018-08-18T00:16:09.588Z,26.9
2018-08-18T00:16:59.377Z,26.9
2018-08-18T00:17:49.432Z,26.9
2018-08-18T00:18:39.199Z,26.9
2018-08-18T00:37:32.802Z,26.9
2018-08-18T00:38:22.538Z,26.9
2018-08-18T00:39:12.590Z,26.9
2018-08-18T00:40:02.071Z,26.9
2018-08-18T00:40:52.699Z,26.9
2018-08-18T00:41:43.080Z,26.9
2018-08-18T00:42:32.280Z,26.9
2018-08-18T00:43:23.180Z,26.9
2018-08-18T00:44:13.028Z,26.9
2018-08-18T00:45:03.323Z,26.9
2018-08-18T00:45:53.085Z,26.9
2018-08-18T00:46:43.180Z,26.9
2018-08-18T00:47:33.506Z,26.9
2018-08-18T00:48:23.315Z,26.9
2018-08-18T00:49:13.715Z,26.9
2018-08-18T00:50:03.431Z,26.9
2018-08-18T00:50:53.560Z,26.9
2018-08-18T00:51:43.565Z,26.9
2018-08-18T00:52:33.627Z,26.9
2018-08-18T00:53:23.119Z,26.9
2018-08-18T00:54:14.092Z,26.9
2018-08-18T00:55:03.906Z,26.9
2018-08-18T00:55:54.171Z,26.9
2018-08-18T00:56:44.263Z,26.9
2018-08-18T00:57:33.476Z,26.9
2018-08-18T00:58:24.074Z,26.9
2018-08-18T00:59:14.429Z,26.9
2018-08-18T01:00:04.489Z,26.9
2018-08-18T01:00:54.287Z,26.9
2018-08-18T01:01:44.601Z,26.9
2018-08-18T01:02:34.402Z,26.9
2018-08-18T01:03:24.738Z,26.9
2018-08-18T01:04:14.220Z,26.9
2018-08-18T01:05:04.622Z,26.8
2018-08-18T01:05:54.919Z,26.8
2018-08-18T01:06:44.712Z,26.9
2018-08-18T01:07:34.771Z,26.8
2018-08-18T01:08:24.893Z,26.9
2018-08-18T01:09:15.154Z,26.9
2018-08-18T01:10:04.959Z,26.8
2018-08-18T01:10:55.760Z,26.9
2018-08-18T01:11:47.354Z,26.9
2018-08-18T01:12:36.595Z,26.9
2018-08-18T01:13:25.004Z,26.8
2018-08-18T01:14:16.935Z,26.8
2018-08-18T01:15:05.595Z,26.8
2018-08-18T01:15:55.560Z,26.8
2018-08-18T01:16:45.481Z,26.9
2018-08-18T01:17:35.509Z,26.8
2018-08-18T01:18:25.886Z,26.8
2018-08-18T01:19:15.641Z,26.8
2018-08-18T01:20:05.746Z,26.8
2018-08-18T01:20:56.091Z,26.8
2018-08-18T01:21:46.142Z,26.8
2018-08-18T01:22:35.932Z,26.8
2018-08-18T01:23:26.277Z,26.8
2018-08-18T01:24:16.368Z,26.8
2018-08-18T01:25:06.413Z,26.8
2018-08-18T01:25:55.907Z,26.8
2018-08-18T01:26:46.260Z,26.8
2018-08-18T01:27:36.618Z,26.8
2018-08-18T01:28:26.720Z,26.8
2018-08-18T01:29:16.453Z,26.8
2018-08-18T01:30:06.808Z,26.8
2018-08-18T01:30:56.588Z,26.8
2018-08-18T01:31:46.351Z,26.8
2018-08-18T01:32:37.013Z,26.8
2018-08-18T01:33:27.048Z,26.8
2018-08-18T01:34:17.128Z,26.8
2018-08-18T01:35:07.207Z,26.8
2018-08-18T01:35:57.265Z,26.8
2018-08-18T01:36:47.303Z,26.8
2018-08-18T01:37:36.252Z,26.8
2018-08-18T01:38:26.324Z,26.8
2018-08-18T01:39:16.936Z,26.8
2018-08-18T01:40:06.680Z,26.8
2018-08-18T01:40:57.336Z,26.8
2018-08-18T01:41:47.111Z,26.8
2018-08-18T01:42:37.197Z,26.8
2018-08-18T01:43:27.238Z,26.8
2018-08-18T01:44:17.872Z,26.8
2018-08-18T01:45:07.382Z,26.8
2018-08-18T01:45:57.414Z,26.8
2018-08-18T01:46:47.229Z,26.8
2018-08-18T01:47:38.114Z,26.8
2018-08-18T01:48:27.915Z,26.8
2018-08-18T01:49:17.960Z,26.8
2018-08-18T01:50:08.020Z,26.8
2018-08-18T01:50:58.132Z,26.8
2018-08-18T01:51:47.917Z,26.8
2018-08-18T01:52:37.924Z,26.8
2018-08-18T01:53:28.322Z,26.8
2018-08-18T01:54:18.643Z,26.8
2018-08-18T01:55:08.464Z,26.8
2018-08-18T01:55:58.778Z,26.8
2018-08-18T01:56:48.542Z,26.8
2018-08-18T01:57:38.919Z,26.8
2018-08-18T01:58:28.745Z,26.8
2018-08-18T01:59:18.797Z,26.8
2018-08-18T02:00:08.559Z,26.8
2018-08-18T02:00:58.878Z,26.8
2018-08-18T02:01:49.258Z,26.8
2018-08-18T02:02:39.327Z,26.8
2018-08-18T02:03:29.346Z,26.8
2018-08-18T02:04:18.878Z,26.8
2018-08-18T02:05:09.490Z,26.8
2018-08-18T02:05:59.285Z,26.8
2018-08-18T02:06:49.042Z,26.8
2018-08-18T02:07:39.680Z,26.8
2018-08-18T02:08:29.737Z,26.8
2018-08-18T02:09:19.537Z,26.8
2018-08-18T02:10:09.324Z,26.8
2018-08-18T02:10:59.663Z,26.8
2018-08-18T02:11:50.008Z,26.8
2018-08-18T02:12:39.522Z,26.8
2018-08-18T02:13:29.854Z,26.8
2018-08-18T02:14:19.926Z,26.8
2018-08-18T02:15:09.766Z,26.8
2018-08-18T02:16:00.290Z,26.7
2018-08-18T02:16:50.090Z,26.8
2018-08-18T02:17:40.466Z,26.8
2018-08-18T02:18:30.480Z,26.8
2018-08-18T02:19:19.715Z,26.8
2018-08-18T02:20:11.460Z,26.8
2018-08-18T02:21:00.678Z,26.8
2018-08-18T02:21:50.755Z,26.8
2018-08-18T02:22:40.831Z,26.7
2018-08-18T02:23:30.315Z,26.7
2018-08-18T02:24:20.702Z,26.8
2018-08-18T02:25:10.455Z,26.7
2018-08-18T02:26:00.213Z,26.7
2018-08-18T02:26:50.019Z,26.8
2018-08-18T02:27:40.918Z,26.8
2018-08-18T02:28:31.007Z,26.8
2018-08-18T02:29:20.758Z,26.7
2018-08-18T02:30:11.433Z,26.7
2018-08-18T02:31:01.220Z,26.7
2018-08-18T02:31:51.519Z,26.7
2018-08-18T02:32:41.322Z,26.7
2018-08-18T02:33:31.381Z,26.8
2018-08-18T02:34:21.459Z,26.7
2018-08-18T02:35:11.547Z,26.7
2018-08-18T02:36:01.613Z,26.7
2018-08-18T02:36:51.668Z,26.7
2018-08-18T02:37:42.016Z,26.7
2018-08-18T02:38:31.830Z,26.7
2018-08-18T02:39:21.582Z,26.7
2018-08-18T02:40:12.795Z,26.7
2018-08-18T02:41:01.419Z,26.7
2018-08-18T02:41:52.311Z,26.7
2018-08-18T02:42:42.393Z,26.7
2018-08-18T02:43:32.167Z,26.7
2018-08-18T02:44:22.220Z,26.7
2018-08-18T02:45:12.300Z,26.7
2018-08-18T02:46:02.635Z,26.7
2018-08-18T02:46:52.731Z,26.7
2018-08-18T02:47:42.759Z,26.7
2018-08-18T02:48:32.538Z,26.7
2018-08-18T02:49:22.881Z,26.7
2018-08-18T02:50:12.976Z,26.7
2018-08-18T02:51:02.998Z,26.7
2018-08-18T02:51:52.787Z,26.7
2018-08-18T02:52:42.871Z,26.7
2018-08-18T02:53:33.228Z,26.7
2018-08-18T02:54:23.262Z,26.7
2018-08-18T02:55:13.312Z,26.7
2018-08-18T02:56:03.392Z,26.7
2018-08-18T02:56:53.455Z,26.7
2018-08-18T02:57:43.353Z,26.7
2018-08-18T02:58:33.575Z,26.7
2018-08-18T02:59:23.651Z,26.7
2018-08-18T03:00:13.706Z,26.7
2018-08-18T03:01:03.477Z,26.7
2018-08-18T03:01:53.839Z,26.7
2018-08-18T03:02:43.940Z,26.7
2018-08-18T03:03:33.957Z,26.6
2018-08-18T03:04:24.010Z,26.6
2018-08-18T03:05:14.064Z,26.6
2018-08-18T03:06:03.875Z,26.7
2018-08-18T03:06:53.937Z,26.6
2018-08-18T03:07:44.212Z,26.7
2018-08-18T03:08:33.544Z,26.6
2018-08-18T03:09:24.457Z,26.6
2018-08-18T03:10:14.217Z,26.7
2018-08-18T03:11:04.299Z,26.6
2018-08-18T03:11:54.345Z,26.6
2018-08-18T03:12:44.404Z,26.6
2018-08-18T03:13:34.793Z,26.7
2018-08-18T03:14:24.551Z,26.6
2018-08-18T03:15:14.878Z,26.6
2018-08-18T03:16:04.661Z,26.6
2018-08-18T03:16:54.432Z,26.6
2018-08-18T03:17:44.803Z,26.6
2018-08-18T03:18:34.862Z,26.7
2018-08-18T03:19:24.910Z,26.6
2018-08-18T03:20:15.280Z,26.6
2018-08-18T03:21:04.487Z,26.6
2018-08-18T03:21:55.412Z,26.6
2018-08-18T03:22:45.168Z,26.6
2018-08-18T03:23:34.994Z,26.6
2018-08-18T03:24:25.048Z,26.6
2018-08-18T03:25:15.298Z,26.6
2018-08-18T03:26:05.721Z,26.6
2018-08-18T03:26:55.762Z,26.6
2018-08-18T03:27:45.264Z,26.6
2018-08-18T03:28:34.769Z,26.6
2018-08-18T03:29:25.379Z,26.6
2018-08-18T03:30:15.565Z,26.6
2018-08-18T03:31:05.552Z,26.6
2018-08-18T03:31:55.905Z,26.6
2018-08-18T03:32:45.643Z,26.6
2018-08-18T03:33:36.274Z,26.6
2018-08-18T03:34:25.783Z,26.6
2018-08-18T03:35:16.391Z,26.6
2018-08-18T03:36:05.628Z,26.6
2018-08-18T03:36:56.532Z,26.6
2018-08-18T03:37:46.562Z,26.6
2018-08-18T03:38:36.100Z,26.6
2018-08-18T03:39:26.699Z,26.6
2018-08-18T03:40:16.199Z,26.6
2018-08-18T03:41:06.580Z,26.6
2018-08-18T03:41:56.654Z,26.6
2018-08-18T03:42:46.671Z,26.6
2018-08-18T03:43:37.019Z,26.6
2018-08-18T03:44:27.106Z,26.6
2018-08-18T03:45:16.882Z,26.6
2018-08-18T03:46:06.969Z,26.6
2018-08-18T03:46:57.338Z,26.6
2018-08-18T03:47:47.380Z,26.6
2018-08-18T03:48:37.452Z,26.6
2018-08-18T03:49:27.253Z,26.6
2018-08-18T03:50:17.291Z,26.6
2018-08-18T03:51:07.686Z,26.6
2018-08-18T03:51:57.157Z,26.6
2018-08-18T03:52:47.793Z,26.6
2018-08-18T03:53:37.816Z,26.6
2018-08-18T03:54:27.649Z,26.6
2018-08-18T03:55:18.024Z,26.6
2018-08-18T03:56:08.026Z,26.6
2018-08-18T03:56:57.496Z,26.6
2018-08-18T03:57:47.875Z,26.6
2018-08-18T03:58:38.215Z,26.6
2018-08-18T03:59:28.013Z,26.6
2018-08-18T04:00:18.057Z,26.6
2018-08-18T04:01:07.566Z,26.6
2018-08-18T04:01:59.287Z,26.6
2018-08-18T04:02:48.611Z,26.6
2018-08-18T04:03:38.302Z,26.6
2018-08-18T04:04:28.663Z,26.6
2018-08-18T04:05:18.142Z,26.6
2018-08-18T04:06:08.218Z,26.6
2018-08-18T04:06:58.878Z,26.6
2018-08-18T04:07:48.621Z,26.6
2018-08-18T04:08:38.685Z,26.6
2018-08-18T04:09:29.109Z,26.6
2018-08-18T04:10:18.795Z,26.6
2018-08-18T04:11:08.637Z,26.6
2018-08-18T04:11:58.696Z,26.5
2018-08-18T04:12:49.316Z,26.6
2018-08-18T04:13:39.345Z,26.5
2018-08-18T04:14:29.115Z,26.6
2018-08-18T04:15:18.913Z,26.6
2018-08-18T04:16:08.994Z,26.6
2018-08-18T04:16:58.755Z,26.5
2018-08-18T04:17:49.485Z,26.5
2018-08-18T04:18:39.157Z,26.6
2018-08-18T04:19:29.497Z,26.5
2018-08-18T04:20:19.878Z,26.5
2018-08-18T04:21:09.952Z,26.5
2018-08-18T04:21:59.789Z,26.5
2018-08-18T04:22:49.776Z,26.5
2018-08-18T04:23:39.269Z,26.5
2018-08-18T04:24:30.206Z,26.5
2018-08-18T04:25:20.929Z,26.5
2018-08-18T04:26:10.087Z,26.5
2018-08-18T04:26:59.829Z,26.5
2018-08-18T04:27:50.256Z,26.5
2018-08-18T04:28:40.519Z,26.5
2018-08-18T04:29:30.598Z,26.5
2018-08-18T04:30:20.128Z,26.6
2018-08-18T04:31:10.435Z,26.5
2018-08-18T04:32:00.770Z,26.5
2018-08-18T04:32:50.917Z,26.5
2018-08-18T04:33:40.930Z,26.5
2018-08-18T04:34:30.961Z,26.5
2018-08-18T04:35:20.865Z,26.5
2018-08-18T04:36:11.090Z,26.5
2018-08-18T04:37:01.163Z,26.5
2018-08-18T04:37:50.941Z,26.5
2018-08-18T04:38:40.729Z,26.5
2018-08-18T04:39:31.098Z,26.5
2018-08-18T04:40:20.813Z,26.5
2018-08-18T04:41:11.180Z,26.5
2018-08-18T04:42:01.236Z,26.5
2018-08-18T04:42:51.581Z,26.5
2018-08-18T04:43:41.738Z,26.5
2018-08-18T04:44:31.721Z,26.5
2018-08-18T04:45:21.499Z,26.5
2018-08-18T04:46:11.844Z,26.5
2018-08-18T04:47:01.655Z,26.5
2018-08-18T04:47:52.009Z,26.5
2018-08-18T04:48:41.784Z,26.5
2018-08-18T05:06:50.386Z,26.4
2018-08-18T05:07:40.392Z,26.4
2018-08-18T05:08:30.744Z,26.4
2018-08-18T05:09:20.808Z,26.4
2018-08-18T05:10:10.859Z,26.4
2018-08-18T05:11:00.655Z,26.4
2018-08-18T05:11:51.247Z,26.4
2018-08-18T05:12:41.015Z,26.4
2018-08-18T05:13:31.110Z,26.4
2018-08-18T05:14:20.921Z,26.4
2018-08-18T05:15:11.225Z,26.4
2018-08-18T05:16:00.484Z,26.4
2018-08-18T05:16:51.199Z,26.4
2018-08-18T05:17:41.163Z,26.4
2018-08-18T05:18:30.385Z,26.4
2018-08-18T05:19:22.249Z,26.4
2018-08-18T05:20:11.653Z,26.5
2018-08-18T05:21:01.146Z,26.5
2018-08-18T05:21:51.785Z,26.4
2018-08-18T05:22:41.288Z,26.4
2018-08-18T05:23:31.631Z,26.5
2018-08-18T05:24:21.722Z,26.5
2018-08-18T05:25:11.196Z,26.4
2018-08-18T05:26:01.528Z,26.5
2018-08-18T05:26:51.885Z,26.5
2018-08-18T05:27:41.938Z,26.5
2018-08-18T05:28:31.995Z,26.5
2018-08-18T05:29:22.123Z,26.5
2018-08-18T05:30:12.161Z,26.5
2018-08-18T05:31:02.198Z,26.4
2018-08-18T05:31:52.279Z,26.5
2018-08-18T05:32:42.349Z,26.5
2018-08-18T05:33:32.627Z,26.5
2018-08-18T05:34:22.703Z,26.5
2018-08-18T05:35:12.804Z,26.4
2018-08-18T05:36:02.867Z,26.4
2018-08-18T05:36:52.318Z,26.4
2018-08-18T05:37:42.668Z,26.5
2018-08-18T05:38:32.761Z,26.4
2018-08-18T05:39:22.540Z,26.5
2018-08-18T05:40:12.375Z,26.5
2018-08-18T05:41:02.939Z,26.5
2018-08-18T05:41:53.261Z,26.5
2018-08-18T05:42:43.062Z,26.5
2018-08-18T05:43:33.423Z,26.5
2018-08-18T05:44:23.193Z,26.5
2018-08-18T05:45:13.223Z,26.5
2018-08-18T05:46:02.832Z,26.5
2018-08-18T05:46:53.655Z,26.5
2018-08-18T05:47:44.718Z,26.5
2018-08-18T05:48:33.552Z,26.5
2018-08-18T05:49:23.889Z,26.4
2018-08-18T05:50:13.916Z,26.5
2018-08-18T05:51:03.694Z,26.4
2018-08-18T05:51:54.061Z,26.5
2018-08-18T05:52:44.131Z,26.5
2018-08-18T05:53:33.998Z,26.4
2018-08-18T05:54:23.978Z,26.5
2018-08-18T05:55:14.341Z,26.5
2018-08-18T05:56:03.548Z,26.5
2018-08-18T05:56:53.912Z,26.5
2018-08-18T05:57:43.966Z,26.5
2018-08-18T05:58:34.574Z,26.5
2018-08-18T05:59:24.093Z,26.5
2018-08-18T06:00:14.168Z,26.5
2018-08-18T06:01:04.227Z,26.5
2018-08-18T06:01:54.586Z,26.5
2018-08-18T06:02:44.604Z,26.5
2018-08-18T06:03:34.710Z,26.5
2018-08-18T06:04:25.065Z,26.5
2018-08-18T06:05:14.533Z,26.5
2018-08-18T06:06:04.929Z,26.5
2018-08-18T06:06:54.385Z,26.5
2018-08-18T06:07:44.992Z,26.5
2018-08-18T06:08:35.083Z,26.4
2018-08-18T06:09:25.487Z,26.5
2018-08-18T06:10:15.456Z,26.5
2018-08-18T06:11:05.556Z,26.4
2018-08-18T06:11:55.069Z,26.4
2018-08-18T06:12:45.663Z,26.4
2018-08-18T06:13:35.456Z,26.4
2018-08-18T06:14:25.469Z,26.4
2018-08-18T06:15:15.859Z,26.4
2018-08-18T06:16:05.893Z,26.4
2018-08-18T06:16:55.410Z,26.4
2018-08-18T06:17:45.455Z,26.4
2018-08-18T06:18:35.806Z,26.4
2018-08-18T06:19:25.899Z,26.5
2018-08-18T06:20:15.192Z,26.5
2018-08-18T06:21:06.281Z,26.4
2018-08-18T06:21:55.901Z,26.4
2018-08-18T06:22:46.427Z,26.4
2018-08-18T06:23:36.566Z,26.5
2018-08-18T06:24:26.567Z,26.4
2018-08-18T06:25:16.603Z,26.4
2018-08-18T06:26:06.410Z,26.4
2018-08-18T06:26:56.498Z,26.4
2018-08-18T06:27:46.556Z,26.4
2018-08-18T06:28:36.042Z,26.4
2018-08-18T06:29:26.379Z,26.4
2018-08-18T06:30:16.176Z,26.4
2018-08-18T06:31:06.811Z,26.4
2018-08-18T06:31:56.651Z,26.4
2018-08-18T06:32:46.649Z,26.4
2018-08-18T06:33:37.306Z,26.4
2018-08-18T06:34:27.512Z,28.8
2018-08-18T06:35:17.445Z,45.3
2018-08-18T06:36:06.916Z,51.5
2018-08-18T06:36:57.529Z,51.6
2018-08-18T06:37:47.315Z,51
2018-08-18T06:38:37.117Z,50.6
2018-08-18T06:39:27.433Z,50.3
2018-08-18T06:40:17.512Z,50.1
2018-08-18T06:41:07.672Z,49.8
2018-08-18T06:41:58.597Z,49.3
2018-08-18T06:42:47.776Z,48.9
2018-08-18T06:43:37.491Z,48.5
2018-08-18T06:44:27.844Z,48.1
2018-08-18T06:45:17.874Z,47.6
2018-08-18T06:46:07.954Z,47.2
2018-08-18T06:46:58.284Z,46.8
2018-08-18T06:47:48.083Z,46.3
2018-08-18T06:48:37.601Z,45.9
2018-08-18T06:49:28.186Z,45.6
2018-08-18T06:50:18.265Z,45.1
2018-08-18T06:51:08.359Z,44.8
2018-08-18T06:51:58.652Z,44.4
2018-08-18T06:52:48.488Z,44.1
2018-08-18T06:53:38.244Z,43.7
2018-08-18T06:54:29.382Z,43.6
2018-08-18T06:55:20.336Z,43.1
2018-08-18T06:56:08.986Z,50.3
2018-08-18T06:56:59.314Z,54.5
2018-08-18T06:57:48.304Z,54.1
2018-08-18T06:58:38.914Z,52.3
2018-08-18T06:59:29.230Z,50.1
2018-08-18T07:00:19.317Z,49.2
2018-08-18T07:01:09.118Z,48.9
2018-08-18T07:01:59.476Z,48.8
2018-08-18T07:02:48.674Z,48.5
2018-08-18T07:03:39.474Z,48.3
2018-08-18T07:04:29.656Z,48.1
2018-08-18T07:05:19.736Z,47.9
2018-08-18T07:06:09.800Z,47.7
2018-08-18T07:06:59.858Z,47.4
2018-08-18T07:07:49.912Z,46.4
2018-08-18T07:08:39.972Z,52.1
2018-08-18T07:09:29.768Z,56
2018-08-18T07:10:19.848Z,56.6
2018-08-18T07:11:09.913Z,56.1
2018-08-18T07:11:59.968Z,54.1
2018-08-18T07:12:50.026Z,52.1
2018-08-18T07:13:40.112Z,51.3
2018-08-18T07:14:30.137Z,52
2018-08-18T07:15:19.380Z,53.2
2018-08-18T07:16:10.288Z,54.1
2018-08-18T07:17:00.640Z,54.6
2018-08-18T07:17:50.694Z,54.4
2018-08-18T07:18:40.811Z,54
2018-08-18T07:19:31.141Z,53.7
2018-08-18T07:20:20.710Z,53.6
2018-08-18T07:21:10.351Z,53.9
2018-08-18T07:22:00.751Z,54.3
2018-08-18T07:22:50.802Z,54.7
2018-08-18T07:23:40.830Z,54.9
2018-08-18T07:24:31.180Z,54.9
2018-08-18T07:25:21.243Z,54.9
2018-08-18T07:26:11.360Z,54.9
2018-08-18T07:27:01.344Z,55.1
2018-08-18T07:27:51.445Z,55.3
2018-08-18T07:28:42.212Z,55.4
2018-08-18T07:29:31.552Z,55.6
2018-08-18T07:30:21.619Z,55.7
2018-08-18T07:31:11.739Z,55.8
2018-08-18T07:32:01.502Z,55.9
2018-08-18T07:32:51.564Z,55.9
2018-08-18T07:33:42.007Z,56.1
2018-08-18T07:34:31.663Z,56.3
2018-08-18T07:35:21.444Z,56.4
2018-08-18T07:36:11.838Z,56.6
2018-08-18T07:37:02.169Z,56.6
2018-08-18T07:37:52.232Z,56.8
2018-08-18T07:38:42.321Z,56.9
2018-08-18T07:39:32.114Z,57.1
2018-08-18T07:40:21.876Z,57.2
2018-08-18T07:41:12.229Z,57.3
2018-08-18T07:42:02.005Z,57.4
2018-08-18T07:42:52.668Z,57.6
2018-08-18T07:43:42.142Z,57.7
2018-08-18T07:44:32.483Z,57.8
2018-08-18T07:45:22.550Z,57.9
2018-08-18T07:46:13.052Z,58.1
2018-08-18T07:47:02.676Z,58.3
2018-08-18T07:47:52.731Z,58.3
2018-08-18T07:48:43.084Z,58.4
2018-08-18T07:50:23.217Z,58.7
2018-08-18T07:51:12.716Z,58.8
2018-08-18T07:52:03.053Z,58.9
2018-08-18T07:52:53.403Z,59.1
2018-08-18T07:53:43.309Z,59.2
2018-08-18T07:54:33.257Z,59.3
2018-08-18T07:55:23.316Z,59.4
2018-08-18T07:56:13.635Z,59.6
2018-08-18T07:57:03.399Z,59.6
2018-08-18T07:57:52.980Z,59.8
2018-08-18T07:58:43.848Z,59.8
2018-08-18T07:59:34.029Z,59.9
2018-08-18T08:00:23.973Z,60.1
2018-08-18T08:01:14.051Z,60.1
2018-08-18T08:02:04.122Z,60.3
2018-08-18T08:02:53.871Z,60.4
2018-08-18T08:03:44.218Z,60.5
2018-08-18T08:04:33.992Z,60.6
2018-08-18T08:05:24.127Z,60.5
2018-08-18T08:06:14.418Z,60.6
2018-08-18T08:07:04.212Z,60.8
2018-08-18T08:07:54.257Z,60.9
2018-08-18T08:08:44.593Z,61
2018-08-18T08:09:34.118Z,61.1
2018-08-18T08:10:24.708Z,61.1
2018-08-18T08:11:14.538Z,61.2
2018-08-18T08:12:04.901Z,61.3
2018-08-18T08:12:55.580Z,61.4
2018-08-18T08:13:44.720Z,61.4
2018-08-18T08:14:35.093Z,61.5
2018-08-18T08:15:25.161Z,61.6
2018-08-18T08:16:15.211Z,61.7
2018-08-18T08:17:04.998Z,61.7
2018-08-18T08:17:55.055Z,61.8
2018-08-18T08:18:44.833Z,61.8
2018-08-18T08:19:34.901Z,61.9
2018-08-18T08:20:25.544Z,61.9
2018-08-18T08:21:15.317Z,62
2018-08-18T08:22:05.403Z,62.1
2018-08-18T08:22:55.468Z,62.1
2018-08-18T08:23:45.231Z,62.3
2018-08-18T08:24:35.300Z,62.4
2018-08-18T08:25:25.918Z,62.4
2018-08-18T08:26:15.995Z,62.5
2018-08-18T08:27:06.044Z,62.6
2018-08-18T08:27:56.124Z,62.8
2018-08-18T08:28:46.179Z,62.8
2018-08-18T08:29:36.640Z,62.9
2018-08-18T08:30:26.355Z,63
2018-08-18T08:31:16.367Z,63.1
2018-08-18T08:32:06.404Z,63.1
2018-08-18T08:32:56.534Z,63.3
2018-08-18T08:33:46.687Z,63.3
2018-08-18T08:34:36.642Z,63.4
2018-08-18T08:35:26.399Z,63.4
2018-08-18T08:36:16.178Z,63.5
2018-08-18T08:37:06.819Z,63.6
2018-08-18T08:37:56.596Z,63.7
2018-08-18T08:38:46.676Z,63.8
2018-08-18T08:39:36.734Z,63.9
2018-08-18T08:40:26.815Z,63.9
2018-08-18T08:41:18.634Z,64
2018-08-18T08:42:06.924Z,64.1
2018-08-18T08:42:59.153Z,64.3
2018-08-18T08:43:46.764Z,64.4
2018-08-18T08:44:37.114Z,64.5
2018-08-18T08:45:27.869Z,64.5
2018-08-18T08:46:17.221Z,64.6
2018-08-18T08:47:07.130Z,64.8
2018-08-18T08:47:57.395Z,64.8
2018-08-18T08:48:47.143Z,64.9
2018-08-18T08:49:37.769Z,65
2018-08-18T08:50:27.953Z,65.1
2018-08-18T08:51:18.120Z,65.1
2018-08-18T08:52:07.732Z,65.1
2018-08-18T08:52:58.086Z,65.1
2018-08-18T08:53:48.222Z,65.1
2018-08-18T08:54:38.415Z,65.2
2018-08-18T08:55:27.436Z,65.3
2018-08-18T08:56:18.598Z,65.4
2018-08-18T08:57:08.820Z,65.4
2018-08-18T08:57:58.479Z,65.5
2018-08-18T08:58:49.077Z,65.6
2018-08-18T08:59:39.300Z,65.8
2018-08-18T09:00:28.670Z,65.8
2018-08-18T09:01:18.736Z,65.9
2018-08-18T09:02:08.862Z,65.9
2018-08-18T09:02:58.526Z,65.9
2018-08-18T09:03:49.319Z,66.1
2018-08-18T09:04:38.900Z,66
2018-08-18T09:21:12.201Z,66.8
2018-08-18T09:22:01.952Z,66.9
2018-08-18T09:22:52.559Z,66.9
2018-08-18T09:23:42.640Z,66.9
2018-08-18T09:24:32.417Z,66.9
2018-08-18T09:25:23.099Z,67
2018-08-18T09:26:13.477Z,67.1
2018-08-18T09:27:02.045Z,67.1
2018-08-18T09:27:53.215Z,67.1
2018-08-18T09:28:42.739Z,67.1
2018-08-18T09:29:33.353Z,67.2
2018-08-18T09:30:23.158Z,67.3
2018-08-18T09:31:13.525Z,67.4
2018-08-18T09:32:03.562Z,67.4
2018-08-18T09:32:53.634Z,67.6
2018-08-18T09:33:43.724Z,67.6
2018-08-18T09:34:33.780Z,67.6
2018-08-18T09:35:23.569Z,67.7
2018-08-18T09:36:14.381Z,67.7
2018-08-18T09:37:03.979Z,67.8
2018-08-18T09:37:54.033Z,67.7
2018-08-18T09:38:43.844Z,67.8
2018-08-18T09:39:33.906Z,67.8
2018-08-18T09:40:24.241Z,67.9
2018-08-18T09:41:14.034Z,67.9
2018-08-18T09:42:03.815Z,67.9
2018-08-18T09:42:54.427Z,68.1
2018-08-18T09:43:44.212Z,68.1
2018-08-18T09:44:34.574Z,68.1
2018-08-18T09:45:24.987Z,68.2
2018-08-18T09:46:14.107Z,68.3
2018-08-18T09:47:04.758Z,68.4
2018-08-18T09:47:54.522Z,68.4
2018-08-18T09:48:44.890Z,68.6
2018-08-18T09:49:34.358Z,68.7
2018-08-18T09:50:24.425Z,68.8
2018-08-18T09:51:15.052Z,68.8
2018-08-18T09:52:05.108Z,68.8
2018-08-18T09:52:55.206Z,68.7
2018-08-18T09:53:44.215Z,68.8
2018-08-18T09:54:35.303Z,68.8
2018-08-18T09:55:24.548Z,68.8
2018-08-18T09:56:15.158Z,68.8
2018-08-18T09:57:05.309Z,68.9
2018-08-18T09:57:55.575Z,68.9
2018-08-18T09:58:45.716Z,69.1
2018-08-18T09:59:35.736Z,69.1
2018-08-18T10:00:25.767Z,69.1
2018-08-18T10:01:15.627Z,69.1
2018-08-18T10:02:05.919Z,69.1
2018-08-18T10:02:55.980Z,69.1
2018-08-18T10:03:45.771Z,69.1
2018-08-18T10:04:36.095Z,69.1
2018-08-18T10:05:26.162Z,69.2
2018-08-18T10:06:16.120Z,69.3
2018-08-18T10:07:06.327Z,69.3
2018-08-18T10:07:56.407Z,69.4
2018-08-18T10:08:46.458Z,69.4
2018-08-18T10:09:36.503Z,69.5
2018-08-18T10:10:26.314Z,69.5
2018-08-18T10:11:16.665Z,69.6
2018-08-18T10:12:06.751Z,69.6
2018-08-18T10:12:56.781Z,69.7
2018-08-18T10:13:46.826Z,69.8
2018-08-18T10:14:36.882Z,69.8
2018-08-18T10:15:26.844Z,69.9
2018-08-18T10:16:17.078Z,69.9
2018-08-18T10:17:06.824Z,69.9
2018-08-18T10:17:56.910Z,69.9
2018-08-18T10:18:46.971Z,69.9
2018-08-18T10:19:36.742Z,69.9
2018-08-18T10:20:27.089Z,69.8
2018-08-18T10:21:17.428Z,69.9
2018-08-18T10:22:06.679Z,69.9
2018-08-18T10:22:57.297Z,70
2018-08-18T10:23:47.640Z,70.1
2018-08-18T10:24:37.359Z,70.3
2018-08-18T10:25:27.442Z,70.3
2018-08-18T10:26:17.220Z,70.3
2018-08-18T10:27:08.091Z,70.3
2018-08-18T10:27:57.959Z,70.3
2018-08-18T10:28:47.699Z,70.4
2018-08-18T10:29:38.038Z,70.3
2018-08-18T10:30:27.833Z,70.3
2018-08-18T10:31:17.637Z,70.3
2018-08-18T10:32:07.952Z,70.4
2018-08-18T10:32:58.047Z,70.5
2018-08-18T10:33:48.092Z,70.6
2018-08-18T10:34:38.455Z,70.7
2018-08-18T10:35:28.512Z,70.8
2018-08-18T10:36:18.594Z,70.9
2018-08-18T10:37:08.361Z,71
2018-08-18T10:37:58.751Z,71.1
2018-08-18T10:38:48.492Z,70.9
2018-08-18T10:39:38.559Z,70.6
2018-08-18T10:40:28.899Z,70.3
2018-08-18T10:41:18.961Z,69.1
2018-08-18T10:42:09.918Z,67.5
2018-08-18T10:42:59.122Z,66.7
2018-08-18T10:43:49.270Z,67.4
2018-08-18T10:44:39.267Z,68.6
2018-08-18T10:45:29.340Z,69.5
2018-08-18T10:46:19.399Z,69.8
2018-08-18T10:47:09.435Z,69.5
2018-08-18T10:47:59.503Z,69.3
2018-08-18T10:48:49.577Z,68.7
2018-08-18T10:49:39.643Z,67.8
2018-08-18T10:50:29.717Z,67.8
2018-08-18T10:51:19.518Z,68.5
2018-08-18T10:52:09.837Z,69.3
2018-08-18T10:52:59.355Z,69.7
2018-08-18T10:53:49.979Z,69.8
2018-08-18T10:54:40.049Z,69.6
2018-08-18T10:55:29.840Z,68.9
2018-08-18T10:56:20.185Z,68.6
2018-08-18T10:57:10.242Z,69
2018-08-18T10:58:00.046Z,69.6
2018-08-18T10:58:50.109Z,70.1
2018-08-18T10:59:39.887Z,70.5
2018-08-18T11:00:30.178Z,70.7
2018-08-18T11:01:20.271Z,70.5
2018-08-18T11:02:10.611Z,70.1
2018-08-18T11:03:00.696Z,70.2
2018-08-18T11:03:51.134Z,70.4
2018-08-18T11:04:40.800Z,69.6
2018-08-18T11:05:30.611Z,68.2
2018-08-18T11:06:20.928Z,67.6
2018-08-18T11:07:10.148Z,68.2
2018-08-18T11:08:00.793Z,69.1
2018-08-18T11:08:51.173Z,69.8
2018-08-18T11:09:40.347Z,70.3
2018-08-18T11:10:31.276Z,70.3
2018-08-18T11:11:21.094Z,69.8
2018-08-18T11:12:10.894Z,69.6
2018-08-18T11:13:01.460Z,69.6
2018-08-18T11:13:51.487Z,69.8
2018-08-18T11:14:41.285Z,70.1
2018-08-18T11:15:31.373Z,70.3
2018-08-18T11:16:21.163Z,70.4
2018-08-18T11:17:11.525Z,70.5
2018-08-18T11:18:01.886Z,70.5
2018-08-18T11:18:51.940Z,70.5
2018-08-18T11:19:42.033Z,70.4
2018-08-18T11:20:32.052Z,70.4
2018-08-18T11:21:22.135Z,70.6
2018-08-18T11:22:11.940Z,69.9
2018-08-18T11:23:02.310Z,68.4
2018-08-18T11:23:52.344Z,66.7
2018-08-18T11:24:42.387Z,65.3
2018-08-18T11:25:31.894Z,64.7
2018-08-18T11:26:22.251Z,64.6
2018-08-18T11:27:12.317Z,65.3
2018-08-18T11:28:02.183Z,66.3
2018-08-18T11:28:53.416Z,67.2
2018-08-18T11:29:42.769Z,67.4
2018-08-18T11:30:32.865Z,67.4
2018-08-18T11:31:22.936Z,66.8
2018-08-18T11:32:13.019Z,65.6
2018-08-18T11:33:03.097Z,64.4
2018-08-18T11:33:52.838Z,64.1
2018-08-18T11:34:42.949Z,64.9
2018-08-18T11:35:33.210Z,66
2018-08-18T11:36:23.007Z,66.9
2018-08-18T11:37:13.374Z,67.4
2018-08-18T11:38:03.423Z,67.4
2018-08-18T11:38:52.934Z,67.2
2018-08-18T11:39:43.553Z,67.1
2018-08-18T11:40:33.327Z,67.1
2018-08-18T11:41:23.734Z,67.4
2018-08-18T11:42:13.453Z,68
2018-08-18T11:43:03.815Z,68.3
2018-08-18T11:43:53.910Z,68.5
2018-08-18T11:44:43.922Z,68.6
2018-08-18T11:45:33.774Z,68.6
2018-08-18T11:46:23.549Z,68.6
2018-08-18T11:47:13.972Z,68.7
2018-08-18T11:48:04.196Z,68.9
2018-08-18T11:48:54.324Z,69
2018-08-18T11:49:43.792Z,69.1
2018-08-18T11:50:34.395Z,69.2
2018-08-18T11:51:23.901Z,69.3
2018-08-18T11:52:14.288Z,69.4
2018-08-18T11:53:04.336Z,69.4
2018-08-18T11:53:54.678Z,69.4
2018-08-18T11:54:44.506Z,69.4
2018-08-18T11:55:34.797Z,69.5
2018-08-18T11:56:24.897Z,69.5
2018-08-18T11:57:14.387Z,69.4
2018-08-18T11:58:04.998Z,69.4
2018-08-18T11:58:55.119Z,69.4
2018-08-18T11:59:45.148Z,69.5